Orchid Ace — 7JDE — position and weather

sailwx.info

Track history (hours):
 
Tides and Currents Weather Stations Pressure Air Temp Water Temp Dewpoint Dewpoint Depression Visibility Wind Speed Wind Dir Waves Ship Positions

Orchid Ace

Last reported at 2016-Jun-30 13:32 UTC. Time now 2016-Jun-30 14:15 UTC.
Position N 39°15' W 076°32'.

Length 200 m; draft 7.9 m.

Type: Cargo ship. MMSI: 432651000.

Date/timePositionNaut miles runAvg speedWind from/ knotsBaromVisibWave heightAir tempDewpointWater temp
2016-Jun-30 13:32N 39°15' W 076°32'0 0.0
2016-Jun-30 12:32N 39°15' W 076°32'0 0.0
2016-Jun-30 11:32N 39°15' W 076°32'0 0.0
2016-Jun-30 10:32N 39°15' W 076°32'0 0.0
2016-Jun-30 09:32N 39°15' W 076°32'0 0.0
2016-Jun-30 08:32N 39°15' W 076°32'0 0.0
2016-Jun-30 07:32N 39°15' W 076°32'1 0.8
2016-Jun-30 06:34N 39°14' W 076°32'9 9.5
2016-Jun-30 05:34N 39°07' W 076°24'1716.5
2016-Jun-30 04:34N 38°51' W 076°24'4117.3
2016-Jun-30 02:10N 38°10' W 076°14'1217.9
2016-Jun-30 01:29N 37°58' W 076°11'5517.1
2016-Jun-29 22:15N 37°03' W 076°05'5 7.3
2016-Jun-29 21:33N 36°58' W 076°05'1413.8
2016-Jun-29 20:33N 36°57' W 076°22'10 0.7
2016-Jun-29 06:30N 36°59' W 076°11'1314.3
2016-Jun-29 05:33N 36°55' W 075°55'1110.6
2016-Jun-29 04:33N 36°49' W 075°44'  
2016-Jun-24 18:31N 18°36' W 066°13'1111.8
2016-Jun-24 17:33N 18°27' W 066°06'1 1.2
2016-Jun-24 16:28N 18°26' W 066°05'0 0.0
2016-Jun-24 12:16N 18°26' W 066°05'0 0.0
2016-Jun-24 11:28N 18°26' W 066°05'0 0.0
2016-Jun-24 09:31N 18°26' W 066°05'3 3.6
2016-Jun-24 08:33N 18°29' W 066°08'9 8.7
2016-Jun-24 07:33N 18°37' W 066°10'  
2016-Jun-21 20:32N 09°44' W 079°39'1919.2
2016-Jun-21 19:34N 09°30' W 079°51'1111.3
2016-Jun-21 18:33N 09°19' W 079°55'3 2.8
2016-Jun-21 17:33N 09°16' W 079°55'0 0.4
2016-Jun-21 16:33N 09°16' W 079°55'1 0.8
2016-Jun-21 15:33N 09°15' W 079°55'5 5.0
2016-Jun-21 14:33N 09°11' W 079°53'10 9.2
2016-Jun-21 13:30N 09°07' W 079°43'7 7.1
2016-Jun-21 12:33N 09°02' W 079°39'  
Track history (hours):
 
Tides and Currents Weather Stations Pressure Air Temp Water Temp Dewpoint Dewpoint Depression Visibility Wind Speed Wind Dir Waves Ship Positions

Orchid Ace

Last reported at 2016-Jun-30 13:32 UTC. Time now 2016-Jun-30 14:15 UTC.
Position N 39°15' W 076°32'.

Length 200 m; draft 7.9 m.

Type: Cargo ship. MMSI: 432651000.

Date/timePositionNaut miles runAvg speedWind from/ knotsBaromVisibWave heightAir tempDewpointWater temp
2016-Jun-30 13:32N 39°15' W 076°32'0 0.0
2016-Jun-30 12:32N 39°15' W 076°32'0 0.0
2016-Jun-30 11:32N 39°15' W 076°32'0 0.0
2016-Jun-30 10:32N 39°15' W 076°32'0 0.0
2016-Jun-30 09:32N 39°15' W 076°32'0 0.0
2016-Jun-30 08:32N 39°15' W 076°32'0 0.0
2016-Jun-30 07:32N 39°15' W 076°32'1 0.8
2016-Jun-30 06:34N 39°14' W 076°32'9 9.5
2016-Jun-30 05:34N 39°07' W 076°24'1716.5
2016-Jun-30 04:34N 38°51' W 076°24'4117.3
2016-Jun-30 02:10N 38°10' W 076°14'1217.9
2016-Jun-30 01:29N 37°58' W 076°11'5517.1
2016-Jun-29 22:15N 37°03' W 076°05'5 7.3
2016-Jun-29 21:33N 36°58' W 076°05'1413.8
2016-Jun-29 20:33N 36°57' W 076°22'10 0.7
2016-Jun-29 06:30N 36°59' W 076°11'1314.3
2016-Jun-29 05:33N 36°55' W 075°55'1110.6
2016-Jun-29 04:33N 36°49' W 075°44'  
2016-Jun-24 18:31N 18°36' W 066°13'1111.8
2016-Jun-24 17:33N 18°27' W 066°06'1 1.2
2016-Jun-24 16:28N 18°26' W 066°05'0 0.0
2016-Jun-24 12:16N 18°26' W 066°05'0 0.0
2016-Jun-24 11:28N 18°26' W 066°05'0 0.0
2016-Jun-24 09:31N 18°26' W 066°05'3 3.6
2016-Jun-24 08:33N 18°29' W 066°08'9 8.7
2016-Jun-24 07:33N 18°37' W 066°10'  
2016-Jun-21 20:32N 09°44' W 079°39'1919.2
2016-Jun-21 19:34N 09°30' W 079°51'1111.3
2016-Jun-21 18:33N 09°19' W 079°55'3 2.8
2016-Jun-21 17:33N 09°16' W 079°55'0 0.4
2016-Jun-21 16:33N 09°16' W 079°55'1 0.8
2016-Jun-21 15:33N 09°15' W 079°55'5 5.0
2016-Jun-21 14:33N 09°11' W 079°53'10 9.2
2016-Jun-21 13:30N 09°07' W 079°43'7 7.1
2016-Jun-21 12:33N 09°02' W 079°39'  

Dump ship's entire track history